Time;durP1;ratioP1;P1;durP2;ratioP2;P2;SDS_P1;SDS_P2;PMS_P1;PMS_P2;Temp;Humidity;BMP_temperature;BMP_pressure;BME280_temperature;BME280_humidity;BME280_pressure;Samples;Min_cycle;Max_cycle;Signal;HPM_P1;HPM_P2
2023/10/24 00:00:12;;;;;;;6.50;2.90;;;;;;;12.94;57.94;93686.38;530194;27;1115;-42
2023/10/24 00:00:28;;;;;;;6.70;2.90;;;;;;;12.93;58.01;93693.97;530292;28;825;-41
2023/10/24 00:00:43;;;;;;;5.93;3.27;;;;;;;12.92;58.13;93691.75;530218;28;940;-41
2023/10/24 00:00:58;;;;;;;6.97;3.47;;;;;;;12.92;58.21;93692.50;530095;27;1918;-42
2023/10/24 00:01:14;;;;;;;8.10;3.22;;;;;;;12.91;57.93;93688.22;530220;28;865;-41
2023/10/24 00:01:30;;;;;;;6.50;2.87;;;;;;;12.91;57.91;93693.03;530242;27;829;-41
2023/10/24 00:01:45;;;;;;;5.45;2.97;;;;;;;12.89;58.15;93690.84;530173;28;939;-41
2023/10/24 00:02:00;;;;;;;6.03;3.57;;;;;;;12.89;58.19;93690.84;530303;28;1026;-41
2023/10/24 00:02:16;;;;;;;6.97;3.58;;;;;;;12.88;58.21;93694.91;530191;28;848;-41
2023/10/24 00:02:31;;;;;;;7.63;3.27;;;;;;;12.88;58.38;93697.69;530271;28;1332;-41
2023/10/24 00:02:46;;;;;;;6.72;3.40;;;;;;;12.86;58.38;93689.16;530208;27;789;-41
2023/10/24 00:03:02;;;;;;;4.93;3.43;;;;;;;12.82;58.12;93691.56;528041;28;769;-41
2023/10/24 00:03:18;;;;;;;6.40;3.77;;;;;;;12.77;58.27;93691.78;527929;28;837;-41
2023/10/24 00:03:33;;;;;;;6.80;3.83;;;;;;;12.53;58.42;93665.44;528011;28;837;-41
2023/10/24 00:03:49;;;;;;;4.40;3.13;;;;;;;12.74;58.49;93690.13;527897;28;1090;-41
2023/10/24 00:04:05;;;;;;;5.17;2.90;;;;;;;12.72;58.67;93684.41;525868;28;817;-41
2023/10/24 00:04:20;;;;;;;8.20;2.88;;;;;;;12.72;58.46;93692.72;525894;28;868;-41
2023/10/24 00:04:35;;;;;;;7.50;2.67;;;;;;;12.73;58.69;93694.19;525835;28;848;-41
2023/10/24 00:04:51;;;;;;;6.30;3.25;;;;;;;12.75;58.55;93697.91;526396;28;817;-41
2023/10/24 00:05:07;;;;;;;7.57;3.47;;;;;;;12.73;58.48;93683.84;527988;28;834;-41
2023/10/24 00:05:22;;;;;;;5.18;2.75;;;;;;;12.76;58.58;93690.31;527992;28;880;-41
2023/10/24 00:05:38;;;;;;;5.45;3.00;;;;;;;12.76;58.76;93693.06;527935;28;1689;-41
2023/10/24 00:05:53;;;;;;;5.73;3.10;;;;;;;12.69;58.58;93677.94;528520;28;786;-41
2023/10/24 00:06:08;;;;;;;4.43;3.07;;;;;;;12.76;58.69;93687.53;527972;28;859;-41
2023/10/24 00:06:24;;;;;;;5.63;3.72;;;;;;;12.75;58.45;93684.03;527983;28;852;-41
2023/10/24 00:06:39;;;;;;;10.13;4.30;;;;;;;12.77;58.43;93689.03;527970;28;821;-41
2023/10/24 00:06:55;;;;;;;12.87;3.90;;;;;;;12.74;58.40;93692.88;528018;28;789;-41
2023/10/24 00:07:10;;;;;;;7.70;2.85;;;;;;;12.76;58.45;93685.50;527955;28;900;-41
2023/10/24 00:07:25;;;;;;;4.33;2.57;;;;;;;12.79;58.40;93691.97;527920;28;919;-41
2023/10/24 00:07:42;;;;;;;5.23;2.77;;;;;;;12.79;58.43;93689.94;528018;28;864;-41
2023/10/24 00:07:57;;;;;;;7.35;3.00;;;;;;;12.80;58.35;93687.88;528369;28;885;-41
2023/10/24 00:08:12;;;;;;;6.80;3.13;;;;;;;12.80;58.31;93685.84;530208;28;1019;-41
2023/10/24 00:08:28;;;;;;;3.93;2.90;;;;;;;12.79;58.13;93687.16;530230;28;908;-41
2023/10/24 00:08:43;;;;;;;3.97;2.67;;;;;;;12.80;58.28;93685.84;530222;28;867;-41
2023/10/24 00:08:58;;;;;;;3.43;2.70;;;;;;;12.79;58.06;93684.41;530186;28;765;-41
2023/10/24 00:09:14;;;;;;;6.63;2.70;;;;;;;12.80;58.16;93690.66;530147;28;952;-41
2023/10/24 00:09:29;;;;;;;11.18;2.97;;;;;;;12.70;58.11;93675.91;530246;28;940;-41
2023/10/24 00:09:44;;;;;;;9.73;3.00;;;;;;;12.79;58.18;93689.94;530163;28;864;-41
2023/10/24 00:10:01;;;;;;;4.93;2.57;;;;;;;12.77;58.01;93691.78;530287;28;881;-41
2023/10/24 00:10:16;;;;;;;4.15;3.15;;;;;;;12.77;58.16;93689.03;530194;28;818;-41
2023/10/24 00:10:34;;;;;;;4.80;3.10;;;;;;;12.76;58.12;93684.75;530268;28;851;-41
2023/10/24 00:10:57;;;;;;;5.57;2.67;;;;;;;12.76;58.08;93684.75;530182;28;1112;-41
2023/10/24 00:11:13;;;;;;;4.07;2.70;;;;;;;12.76;58.15;93691.03;530252;28;856;-41
2023/10/24 00:11:28;;;;;;;2.73;2.53;;;;;;;12.75;58.01;93686.81;530172;28;990;-41
2023/10/24 00:11:43;;;;;;;4.05;2.28;;;;;;;12.76;58.09;93688.28;530300;28;1027;-41
2023/10/24 00:11:59;;;;;;;4.57;2.40;;;;;;;12.76;57.93;93688.28;530248;28;935;-41
2023/10/24 00:12:14;;;;;;;4.10;2.67;;;;;;;12.76;58.01;93691.03;530218;28;920;-41
2023/10/24 00:12:30;;;;;;;5.47;2.58;;;;;;;12.76;58.09;93687.53;530260;28;801;-41
2023/10/24 00:12:45;;;;;;;5.68;2.35;;;;;;;12.76;57.91;93693.06;530242;28;845;-41
2023/10/24 00:13:01;;;;;;;6.33;2.80;;;;;;;12.57;57.90;93660.25;530232;28;832;-41
2023/10/24 00:13:16;;;;;;;6.07;3.17;;;;;;;12.71;57.90;93691.97;530168;28;810;-41
2023/10/24 00:13:32;;;;;;;5.85;2.85;;;;;;;12.75;57.84;93686.06;530253;28;859;-41
2023/10/24 00:13:48;;;;;;;6.57;2.83;;;;;;;12.76;57.99;93690.31;530220;28;896;-41
2023/10/24 00:14:03;;;;;;;5.83;2.77;;;;;;;12.73;57.85;93694.19;530167;28;865;-41
2023/10/24 00:14:19;;;;;;;3.63;2.40;;;;;;;12.68;57.94;93692.34;530179;28;1108;-41
2023/10/24 00:14:34;;;;;;;4.83;2.70;;;;;;;12.69;57.64;93691.06;530299;28;734;-41
2023/10/24 00:14:49;;;;;;;5.90;2.83;;;;;;;12.73;57.91;93697.69;530205;28;824;-41
2023/10/24 00:15:05;;;;;;;4.00;2.60;;;;;;;12.71;57.91;93703.03;530184;28;889;-41
2023/10/24 00:15:20;;;;;;;4.28;2.70;;;;;;;12.71;57.89;93694.03;530312;28;840;-41
2023/10/24 00:15:36;;;;;;;5.27;2.93;;;;;;;12.73;57.86;93697.69;530154;28;789;-41
2023/10/24 00:15:51;;;;;;;4.65;2.67;;;;;;;12.63;57.74;93680.16;530307;28;817;-41
2023/10/24 00:16:07;;;;;;;4.57;2.80;;;;;;;12.73;57.69;93694.91;527971;28;777;-41
2023/10/24 00:16:22;;;;;;;5.40;2.93;;;;;;;12.66;57.87;93683.88;527968;28;992;-41
2023/10/24 00:16:37;;;;;;;5.25;2.80;;;;;;;12.74;58.05;93695.66;528010;28;769;-41
2023/10/24 00:16:53;;;;;;;5.00;2.63;;;;;;;12.73;58.07;93696.97;528036;28;844;-41
2023/10/24 00:17:08;;;;;;;6.30;2.80;;;;;;;12.73;57.85;93692.16;527964;28;851;-41
2023/10/24 00:17:23;;;;;;;6.05;3.10;;;;;;;12.73;57.85;93699.75;527954;28;876;-42
2023/10/24 00:17:39;;;;;;;3.73;2.63;;;;;;;12.72;57.97;93696.22;528011;28;872;-41
2023/10/24 00:17:54;;;;;;;3.87;2.47;;;;;;;12.72;57.96;93693.47;526077;28;1146;-41
2023/10/24 00:18:13;;;;;;;6.05;2.53;;;;;;;12.73;57.83;93699.75;527900;28;1592;-41
2023/10/24 00:18:28;;;;;;;7.30;2.55;;;;;;;12.73;58.02;93699.75;527922;28;928;-41
2023/10/24 00:18:44;;;;;;;4.72;2.38;;;;;;;12.71;57.99;93705.81;527997;28;812;-41
2023/10/24 00:18:59;;;;;;;3.87;2.37;;;;;;;12.72;58.07;93692.72;527919;28;1194;-41
2023/10/24 00:19:14;;;;;;;4.67;2.50;;;;;;;12.71;57.86;93697.50;527895;28;1205;-41
2023/10/24 00:19:30;;;;;;;6.50;2.53;;;;;;;12.71;57.93;93697.50;527998;28;876;-41
2023/10/24 00:19:45;;;;;;;9.10;2.77;;;;;;;12.70;57.86;93690.50;528670;28;825;-41
2023/10/24 00:20:00;;;;;;;10.10;3.00;;;;;;;12.67;57.81;93690.88;530282;28;820;-41
2023/10/24 00:20:16;;;;;;;7.63;2.92;;;;;;;12.70;58.00;93693.28;530175;28;808;-41
2023/10/24 00:20:31;;;;;;;4.73;2.90;;;;;;;12.70;57.90;93695.31;530304;28;825;-41
2023/10/24 00:20:46;;;;;;;5.13;2.90;;;;;;;12.65;58.36;93685.16;530202;28;844;-41
2023/10/24 00:21:02;;;;;;;5.80;2.80;;;;;;;12.69;57.92;93693.84;530225;28;1973;-41
2023/10/24 00:21:17;;;;;;;7.23;3.10;;;;;;;12.67;58.00;93691.59;530121;28;916;-41
2023/10/24 00:21:33;;;;;;;6.57;3.10;;;;;;;12.69;57.97;93691.06;530269;28;805;-41
2023/10/24 00:21:48;;;;;;;4.30;2.67;;;;;;;12.68;57.96;93690.31;530221;28;839;-41
2023/10/24 00:22:03;;;;;;;4.50;3.10;;;;;;;12.67;58.03;93685.31;530231;28;983;-41
2023/10/24 00:22:19;;;;;;;5.57;3.40;;;;;;;12.65;58.27;93685.88;530138;28;837;-41
2023/10/24 00:22:34;;;;;;;7.97;3.17;;;;;;;12.61;58.16;93684.78;530265;28;844;-41
2023/10/24 00:22:49;;;;;;;8.97;3.17;;;;;;;12.64;58.14;93689.97;530265;28;1105;-41
2023/10/24 00:23:05;;;;;;;6.45;3.40;;;;;;;12.64;58.30;93687.19;530237;28;797;-41
2023/10/24 00:23:20;;;;;;;4.30;3.33;;;;;;;12.65;58.37;93687.91;530185;28;1234;-41
2023/10/24 00:23:36;;;;;;;4.67;3.27;;;;;;;12.63;58.32;93682.94;530134;28;857;-41
2023/10/24 00:23:52;;;;;;;6.13;3.50;;;;;;;12.64;58.28;93683.69;529030;28;1672;-41
2023/10/24 00:24:08;;;;;;;5.65;3.05;;;;;;;12.64;58.32;93689.22;527767;28;2166;-41
2023/10/24 00:24:23;;;;;;;6.25;3.17;;;;;;;12.61;58.57;93690.31;529173;28;1192;-41
2023/10/24 00:24:39;;;;;;;6.27;3.53;;;;;;;12.58;58.69;93681.09;528137;28;782;-41
2023/10/24 00:24:54;;;;;;;6.40;3.53;;;;;;;12.64;58.67;93683.69;528152;28;777;-41
2023/10/24 00:25:09;;;;;;;7.30;3.33;;;;;;;12.62;58.65;93681.47;528077;28;1053;-41
2023/10/24 00:25:25;;;;;;;8.23;3.17;;;;;;;12.62;58.65;93681.47;528106;28;801;-41
2023/10/24 00:25:40;;;;;;;7.63;3.50;;;;;;;12.64;58.52;93686.44;528131;28;873;-41
2023/10/24 00:25:56;;;;;;;6.73;3.80;;;;;;;12.59;58.46;93685.34;528024;28;777;-41
2023/10/24 00:26:11;;;;;;;6.88;3.70;;;;;;;12.54;58.67;93689.03;528113;28;874;-41
2023/10/24 00:26:26;;;;;;;6.13;3.40;;;;;;;12.51;58.82;93689.44;527995;28;1583;-41
2023/10/24 00:26:42;;;;;;;7.13;3.47;;;;;;;12.40;58.76;93667.66;528137;28;855;-41
2023/10/24 00:26:57;;;;;;;6.32;3.45;;;;;;;12.47;58.80;93689.06;525868;28;793;-41
2023/10/24 00:27:13;;;;;;;6.07;3.33;;;;;;;12.47;59.04;93683.53;525913;28;806;-41
2023/10/24 00:27:29;;;;;;;10.50;4.07;;;;;;;12.48;58.87;93682.22;525789;28;1138;-41
2023/10/24 00:27:45;;;;;;;10.30;4.43;;;;;;;12.46;58.90;93679.25;525884;28;900;-41
2023/10/24 00:28:00;;;;;;;6.68;3.90;;;;;;;12.40;58.99;93664.88;525815;28;946;-41
2023/10/24 00:28:16;;;;;;;8.70;4.10;;;;;;;12.46;59.12;93674.47;525808;28;857;-41
2023/10/24 00:28:31;;;;;;;12.23;4.17;;;;;;;12.46;58.92;93674.47;525903;28;900;-41
2023/10/24 00:28:46;;;;;;;11.32;4.03;;;;;;;12.45;59.18;93675.75;526303;28;872;-41
2023/10/24 00:29:02;;;;;;;8.30;4.20;;;;;;;12.46;59.32;93674.47;528194;28;774;-41
2023/10/24 00:29:17;;;;;;;6.00;3.85;;;;;;;12.47;59.40;93681.50;528061;28;833;-41
2023/10/24 00:29:33;;;;;;;6.43;3.80;;;;;;;12.48;59.23;93684.97;528096;28;786;-41
2023/10/24 00:29:48;;;;;;;7.27;4.13;;;;;;;12.48;59.35;93680.19;527954;28;1203;-41
2023/10/24 00:30:04;;;;;;;7.93;4.03;;;;;;;12.46;59.08;93676.50;528116;28;892;-41
2023/10/24 00:30:20;;;;;;;6.55;3.75;;;;;;;12.43;59.31;93675.56;527987;28;802;-41
2023/10/24 00:30:35;;;;;;;5.53;3.73;;;;;;;12.40;59.41;93679.47;528065;28;868;-41
2023/10/24 00:30:50;;;;;;;6.15;3.40;;;;;;;12.38;59.38;93679.28;528132;28;876;-41
2023/10/24 00:31:07;;;;;;;8.03;3.30;;;;;;;12.37;59.33;93677.06;528047;28;840;-41
2023/10/24 00:31:22;;;;;;;8.50;3.63;;;;;;;12.36;59.50;93679.09;528057;28;884;-41
2023/10/24 00:31:37;;;;;;;4.47;3.17;;;;;;;12.37;59.28;93677.06;528049;28;853;-41
2023/10/24 00:31:53;;;;;;;4.40;3.33;;;;;;;12.38;59.47;93675.78;528184;28;848;-41
2023/10/24 00:32:08;;;;;;;5.60;3.80;;;;;;;12.32;59.21;93664.91;528109;28;848;-41
2023/10/24 00:32:23;;;;;;;7.47;3.75;;;;;;;12.37;59.30;93674.28;528038;28;893;-41
2023/10/24 00:32:39;;;;;;;7.87;3.80;;;;;;;12.34;59.31;93675.41;528102;28;833;-41
2023/10/24 00:32:54;;;;;;;5.17;3.33;;;;;;;12.35;59.26;93674.09;528139;28;849;-41
2023/10/24 00:33:09;;;;;;;4.72;2.67;;;;;;;12.36;59.33;93679.09;528050;28;1032;-41
2023/10/24 00:33:25;;;;;;;4.93;2.80;;;;;;;12.37;59.32;93677.06;527986;28;1582;-41
2023/10/24 00:33:41;;;;;;;3.60;2.53;;;;;;;12.36;59.05;93668.03;528186;28;916;-41
2023/10/24 00:33:56;;;;;;;3.70;2.13;;;;;;;12.16;59.01;93644.03;528021;28;870;-41
2023/10/24 00:34:12;;;;;;;4.60;2.35;;;;;;;12.37;58.73;93677.78;528129;28;833;-41
2023/10/24 00:34:27;;;;;;;5.43;2.47;;;;;;;12.36;58.87;93673.56;527973;28;1074;-41
2023/10/24 00:34:43;;;;;;;5.63;2.60;;;;;;;12.35;58.50;93672.09;528130;28;857;-41
2023/10/24 00:34:58;;;;;;;6.47;2.70;;;;;;;12.24;58.57;93661.38;528114;28;770;-41
2023/10/24 00:35:13;;;;;;;5.70;2.40;;;;;;;12.28;58.42;93678.34;528036;28;882;-41
2023/10/24 00:35:29;;;;;;;3.80;2.30;;;;;;;12.24;58.31;93677.25;528080;28;822;-41
2023/10/24 00:35:45;;;;;;;4.97;2.55;;;;;;;12.21;58.25;93675.59;528042;28;849;-41
2023/10/24 00:36:00;;;;;;;6.27;2.57;;;;;;;12.21;58.69;93675.59;528071;28;933;-41
2023/10/24 00:36:15;;;;;;;5.83;2.63;;;;;;;12.13;58.37;93668.03;528084;28;793;-41
2023/10/24 00:36:31;;;;;;;4.63;2.92;;;;;;;12.21;58.45;93679.13;528191;28;822;-41
2023/10/24 00:36:46;;;;;;;6.10;2.90;;;;;;;12.14;58.64;93669.53;527940;28;865;-41
2023/10/24 00:37:02;;;;;;;7.07;2.90;;;;;;;12.13;58.71;93668.03;528178;28;817;-41
2023/10/24 00:37:17;;;;;;;7.63;2.90;;;;;;;12.17;58.71;93679.47;528057;28;1524;-41
2023/10/24 00:37:32;;;;;;;6.77;2.70;;;;;;;12.18;58.64;93671.91;528099;28;880;-41
2023/10/24 00:37:48;;;;;;;3.90;2.38;;;;;;;12.13;58.49;93665.25;528087;28;790;-41
2023/10/24 00:38:03;;;;;;;3.60;2.40;;;;;;;12.23;58.45;93675.78;528156;28;817;-41
2023/10/24 00:38:19;;;;;;;3.25;2.70;;;;;;;12.24;58.51;93671.72;528033;28;884;-41
2023/10/24 00:38:34;;;;;;;4.90;2.80;;;;;;;12.25;58.52;93679.47;528065;28;924;-41
2023/10/24 00:38:49;;;;;;;5.73;2.83;;;;;;;12.25;58.70;93673.94;528425;28;1056;-41
2023/10/24 00:39:05;;;;;;;4.80;2.70;;;;;;;12.29;58.38;93679.09;528393;28;1004;-41
2023/10/24 00:39:21;;;;;;;4.10;2.67;;;;;;;12.27;58.32;93673.38;528423;28;983;-41
2023/10/24 00:39:36;;;;;;;4.00;2.70;;;;;;;12.21;58.38;93668.03;528467;28;897;-41
2023/10/24 00:39:52;;;;;;;3.60;2.97;;;;;;;12.26;58.34;93674.69;528550;28;861;-41
2023/10/24 00:40:08;;;;;;;3.83;3.00;;;;;;;12.27;58.43;93681.69;528556;28;785;-41
2023/10/24 00:40:23;;;;;;;4.90;2.97;;;;;;;12.27;58.24;93681.69;528405;28;1695;-41
2023/10/24 00:40:38;;;;;;;5.90;3.40;;;;;;;12.23;58.37;93665.47;528473;28;1548;-41
2023/10/24 00:40:54;;;;;;;6.78;3.45;;;;;;;12.30;58.19;93675.06;528351;28;2053;-41
2023/10/24 00:41:09;;;;;;;6.93;3.03;;;;;;;12.31;58.06;93679.28;528533;28;845;-41
2023/10/24 00:41:25;;;;;;;6.87;2.80;;;;;;;12.32;58.15;93675.22;526139;28;876;-41
2023/10/24 00:41:40;;;;;;;5.00;2.67;;;;;;;12.32;57.95;93675.22;526251;28;833;-41
2023/10/24 00:41:55;;;;;;;6.57;2.83;;;;;;;12.31;57.84;93677.25;526218;28;845;-41
2023/10/24 00:42:11;;;;;;;8.87;3.17;;;;;;;12.11;57.90;93642.19;526347;28;825;-41
2023/10/24 00:42:26;;;;;;;7.18;3.22;;;;;;;12.31;58.05;93668.22;526228;28;1077;-41
2023/10/24 00:42:41;;;;;;;5.13;2.73;;;;;;;12.32;58.07;93673.22;526299;28;1142;-41
2023/10/24 00:43:02;;;;;;;4.60;2.57;;;;;;;12.32;57.91;93675.97;526146;28;888;-41
2023/10/24 00:43:17;;;;;;;5.15;2.65;;;;;;;12.29;57.89;93666.00;528697;27;1173;-41
2023/10/24 00:43:33;;;;;;;7.13;2.93;;;;;;;12.33;57.52;93669.13;530644;27;900;-41
2023/10/24 00:43:48;;;;;;;7.20;2.92;;;;;;;12.34;57.98;93673.38;530599;27;897;-41
2023/10/24 00:44:06;;;;;;;4.80;2.37;;;;;;;12.33;57.72;93677.44;530633;27;797;-41
2023/10/24 00:44:21;;;;;;;3.28;2.20;;;;;;;12.31;57.76;93671.72;530605;27;900;-41
2023/10/24 00:44:37;;;;;;;3.70;2.50;;;;;;;12.31;57.87;93668.22;530622;27;773;-41
2023/10/24 00:44:52;;;;;;;6.55;2.80;;;;;;;12.31;57.77;93670.97;530592;27;992;-41
2023/10/24 00:45:08;;;;;;;7.93;2.90;;;;;;;12.31;57.97;93674.50;530565;27;916;-41
2023/10/24 00:45:23;;;;;;;7.38;2.75;;;;;;;12.32;58.03;93678.00;530537;27;893;-41
2023/10/24 00:45:41;;;;;;;6.10;2.23;;;;;;;12.32;57.83;93678.75;530603;27;864;-41
2023/10/24 00:45:56;;;;;;;6.53;2.40;;;;;;;12.32;58.08;93673.22;528319;28;813;-41
2023/10/24 00:46:12;;;;;;;5.63;2.45;;;;;;;12.31;58.12;93671.72;526342;28;904;-41
2023/10/24 00:46:27;;;;;;;5.20;2.80;;;;;;;12.31;58.08;93674.50;524026;28;915;-41
2023/10/24 00:46:43;;;;;;;4.07;2.67;;;;;;;12.28;57.99;93669.34;524185;28;825;-42
2023/10/24 00:46:59;;;;;;;4.25;2.63;;;;;;;12.32;58.05;93680.78;524106;28;845;-41
2023/10/24 00:47:14;;;;;;;4.03;2.70;;;;;;;12.32;57.97;93675.22;524107;28;897;-41
2023/10/24 00:47:30;;;;;;;4.07;2.63;;;;;;;12.32;58.01;93675.22;524146;28;850;-41
2023/10/24 00:47:45;;;;;;;3.10;2.60;;;;;;;12.18;57.61;93661.56;522469;28;1618;-41
2023/10/24 00:48:04;;;;;;;2.33;2.13;;;;;;;12.28;57.84;93672.81;524762;28;856;-41
2023/10/24 00:48:20;;;;;;;4.50;2.50;;;;;;;12.24;57.90;93669.69;525061;28;925;-41
2023/10/24 00:48:35;;;;;;;7.97;3.20;;;;;;;12.27;57.83;93678.91;524082;28;821;-41
2023/10/24 00:48:51;;;;;;;6.75;2.70;;;;;;;12.27;58.11;93678.91;522144;28;782;-41
2023/10/24 00:49:06;;;;;;;6.07;2.13;;;;;;;12.26;58.02;93674.69;522002;28;874;-41
2023/10/24 00:49:22;;;;;;;7.45;2.67;;;;;;;12.26;57.93;93674.69;521965;28;1380;-41
2023/10/24 00:49:37;;;;;;;5.13;3.13;;;;;;;12.24;57.89;93675.22;522067;28;794;-41
2023/10/24 00:49:53;;;;;;;3.85;3.05;;;;;;;12.22;58.14;93671.53;522097;28;853;-41
2023/10/24 00:50:08;;;;;;;3.80;2.77;;;;;;;12.22;58.13;93671.53;522488;28;905;-41
2023/10/24 00:50:24;;;;;;;3.58;2.35;;;;;;;12.21;58.11;93673.56;522452;28;963;-41
2023/10/24 00:50:39;;;;;;;5.15;2.35;;;;;;;11.96;58.07;93639.44;524519;28;956;-41
2023/10/24 00:50:55;;;;;;;7.27;2.80;;;;;;;12.17;57.84;93673.94;526242;28;836;-41
2023/10/24 00:51:10;;;;;;;7.20;2.83;;;;;;;12.17;58.10;93676.69;526263;28;860;-41
2023/10/24 00:51:26;;;;;;;5.40;2.75;;;;;;;12.10;58.15;93658.09;524529;28;818;-41
2023/10/24 00:51:41;;;;;;;3.47;2.47;;;;;;;12.16;57.74;93672.47;526319;28;826;-41
2023/10/24 00:51:58;;;;;;;4.25;2.20;;;;;;;12.18;57.93;93671.91;524084;28;838;-42
2023/10/24 00:52:13;;;;;;;7.38;2.65;;;;;;;12.12;57.87;93663.06;522579;28;904;-41
2023/10/24 00:52:29;;;;;;;6.47;2.63;;;;;;;12.05;57.98;93655.47;522094;28;834;-41
2023/10/24 00:52:45;;;;;;;4.95;2.70;;;;;;;12.15;57.49;93665.44;522073;28;861;-41
2023/10/24 00:53:01;;;;;;;4.33;2.57;;;;;;;12.15;57.57;93665.44;520067;28;873;-41
2023/10/24 00:53:16;;;;;;;3.42;2.38;;;;;;;12.17;57.44;93667.69;520493;28;791;-41
2023/10/24 00:53:32;;;;;;;3.80;2.38;;;;;;;12.17;57.25;93671.16;522022;28;878;-41
2023/10/24 00:53:48;;;;;;;7.80;2.83;;;;;;;12.16;57.71;93675.25;522616;28;845;-41
2023/10/24 00:54:04;;;;;;;7.22;2.90;;;;;;;12.17;57.47;93673.94;524898;28;817;-41
2023/10/24 00:54:20;;;;;;;3.13;2.70;;;;;;;12.17;57.74;93679.47;526955;28;817;-41
2023/10/24 00:54:36;;;;;;;4.20;2.92;;;;;;;12.12;57.65;93663.81;528128;28;1106;-41
2023/10/24 00:54:51;;;;;;;4.55;2.50;;;;;;;12.16;57.76;93672.47;526309;28;821;-41
2023/10/24 00:55:07;;;;;;;5.23;2.40;;;;;;;12.13;57.79;93673.56;526846;28;805;-41
2023/10/24 00:55:23;;;;;;;5.63;2.60;;;;;;;12.13;57.71;93668.03;528377;28;852;-41
2023/10/24 00:55:39;;;;;;;6.60;2.53;;;;;;;12.06;57.92;93666.00;528374;28;848;-41
2023/10/24 00:55:54;;;;;;;5.93;2.58;;;;;;;12.12;57.81;93672.09;528313;28;821;-41
2023/10/24 00:56:10;;;;;;;5.10;2.30;;;;;;;12.11;57.81;93673.38;528426;28;758;-41
2023/10/24 00:56:26;;;;;;;5.15;2.53;;;;;;;12.11;57.80;93676.16;526231;28;809;-41
2023/10/24 00:56:45;;;;;;;4.70;2.75;;;;;;;12.11;58.07;93678.16;525640;28;1627;-41
2023/10/24 00:57:01;;;;;;;4.05;2.28;;;;;;;12.08;58.20;93666.19;526267;28;904;-41
2023/10/24 00:57:16;;;;;;;4.15;2.20;;;;;;;12.09;58.00;93675.97;524117;28;825;-41
2023/10/24 00:57:32;;;;;;;4.87;2.50;;;;;;;12.08;57.68;93671.72;524187;28;825;-41
2023/10/24 00:57:48;;;;;;;6.15;2.97;;;;;;;12.10;58.12;93677.44;524067;28;890;-41
2023/10/24 00:58:04;;;;;;;6.38;3.00;;;;;;;12.09;57.84;93673.19;524169;28;833;-41
2023/10/24 00:58:19;;;;;;;6.25;2.55;;;;;;;12.09;57.82;93673.19;524123;28;837;-41
2023/10/24 00:58:36;;;;;;;7.07;2.60;;;;;;;12.09;58.01;93672.44;524143;28;825;-41
2023/10/24 00:58:51;;;;;;;4.85;2.55;;;;;;;11.99;57.93;93663.97;522067;28;1020;-41
2023/10/24 00:59:07;;;;;;;4.23;2.63;;;;;;;12.05;57.88;93669.31;522691;28;1349;-41
2023/10/24 00:59:23;;;;;;;5.63;2.50;;;;;;;12.05;57.91;93670.06;524197;28;960;-41
2023/10/24 00:59:43;;;;;;;5.40;2.35;;;;;;;12.02;58.12;93673.94;524124;28;817;-41
2023/10/24 00:59:59;;;;;;;5.75;2.67;;;;;;;12.03;57.71;93678.19;524110;28;904;-41
2023/10/24 01:00:15;;;;;;;3.92;2.42;;;;;;;12.03;57.75;93674.66;525431;28;861;-41
2023/10/24 01:00:31;;;;;;;2.58;2.38;;;;;;;12.02;57.91;93670.41;526240;28;936;-41
2023/10/24 01:00:46;;;;;;;3.88;2.40;;;;;;;12.03;57.81;93677.44;527542;28;1064;-41
2023/10/24 01:01:03;;;;;;;5.50;2.60;;;;;;;12.03;58.14;93669.88;526205;28;1968;-41
2023/10/24 01:01:19;;;;;;;6.75;2.60;;;;;;;12.02;57.97;93679.47;524063;28;941;-41
2023/10/24 01:01:34;;;;;;;4.70;2.40;;;;;;;12.03;57.99;93675.41;522052;28;904;-41
2023/10/24 01:01:50;;;;;;;3.57;2.27;;;;;;;12.02;58.01;93676.69;520007;28;889;-41
2023/10/24 01:02:06;;;;;;;5.10;2.20;;;;;;;12.02;57.79;93668.38;519982;28;878;-41
2023/10/24 01:02:21;;;;;;;5.93;2.35;;;;;;;12.02;57.87;93673.94;520050;28;849;-41
2023/10/24 01:02:37;;;;;;;5.77;2.57;;;;;;;12.01;57.88;93666.94;519982;28;862;-41
2023/10/24 01:02:53;;;;;;;5.40;2.53;;;;;;;11.81;58.11;93637.41;520730;28;869;-41
2023/10/24 01:03:09;;;;;;;3.83;2.30;;;;;;;11.99;58.02;93663.97;522732;28;818;-41
2023/10/24 01:03:25;;;;;;;3.33;2.42;;;;;;;12.02;58.07;93676.69;524157;28;814;-41
2023/10/24 01:03:43;;;;;;;4.55;2.50;;;;;;;12.03;58.25;93671.91;524901;28;872;-41
2023/10/24 01:03:58;;;;;;;3.35;2.33;;;;;;;12.02;58.01;93673.94;524137;28;1076;-41
2023/10/24 01:04:14;;;;;;;3.80;2.25;;;;;;;12.02;57.97;93676.69;524124;28;1590;-41
2023/10/24 01:04:29;;;;;;;5.50;2.53;;;;;;;12.02;57.82;93682.22;522071;28;810;-41
2023/10/24 01:04:45;;;;;;;4.22;2.28;;;;;;;12.01;58.14;93674.50;521931;28;919;-41
2023/10/24 01:05:01;;;;;;;4.10;2.33;;;;;;;12.00;57.97;93670.97;520789;28;917;-41
2023/10/24 01:05:17;;;;;;;5.90;2.70;;;;;;;12.01;57.95;93672.47;519963;28;861;-41
2023/10/24 01:05:32;;;;;;;5.50;2.38;;;;;;;11.97;57.96;93669.34;520023;28;1001;-41
2023/10/24 01:05:49;;;;;;;4.40;2.23;;;;;;;12.01;57.97;93668.94;520536;28;838;-41
2023/10/24 01:06:05;;;;;;;3.38;2.40;;;;;;;11.98;58.20;93667.28;522115;28;802;-41
2023/10/24 01:06:20;;;;;;;6.05;2.45;;;;;;;11.99;58.40;93677.81;522687;28;1016;-41
2023/10/24 01:06:36;;;;;;;8.23;2.37;;;;;;;12.00;58.21;93675.75;522001;28;916;-41
2023/10/24 01:06:51;;;;;;;6.30;2.20;;;;;;;11.99;58.06;93669.50;522706;28;871;-41
2023/10/24 01:07:06;;;;;;;4.15;2.10;;;;;;;11.99;57.98;93669.50;524060;28;828;-41
2023/10/24 01:07:22;;;;;;;4.10;2.20;;;;;;;11.97;58.28;93663.06;524119;28;979;-41
2023/10/24 01:07:37;;;;;;;3.67;2.40;;;;;;;11.72;58.33;93635.16;524108;28;916;-41
2023/10/24 01:07:53;;;;;;;2.72;2.15;;;;;;;11.97;58.13;93671.34;524137;28;829;-41
2023/10/24 01:08:08;;;;;;;2.47;2.13;;;;;;;11.93;58.24;93663.41;524076;28;870;-41
2023/10/24 01:08:23;;;;;;;4.05;2.45;;;;;;;11.95;58.09;93663.59;524367;28;861;-41
2023/10/24 01:08:39;;;;;;;4.27;2.20;;;;;;;11.96;58.35;93667.09;526436;28;809;-41
2023/10/24 01:08:54;;;;;;;4.37;2.33;;;;;;;11.96;58.13;93661.56;528441;28;885;-41
2023/10/24 01:09:10;;;;;;;4.43;2.65;;;;;;;11.95;58.09;93665.63;528461;28;917;-41
2023/10/24 01:09:25;;;;;;;5.33;2.80;;;;;;;11.94;58.06;93667.66;528344;28;1523;-41
2023/10/24 01:09:41;;;;;;;6.20;2.80;;;;;;;11.94;58.14;93659.34;528453;28;911;-41
2023/10/24 01:09:56;;;;;;;6.17;2.40;;;;;;;11.94;58.03;93666.91;528460;28;805;-41
2023/10/24 01:10:12;;;;;;;6.05;2.20;;;;;;;11.91;58.27;93660.44;528403;28;916;-41
2023/10/24 01:10:27;;;;;;;6.27;2.70;;;;;;;11.84;58.17;93655.66;528344;28;1083;-41
2023/10/24 01:10:42;;;;;;;5.20;2.90;;;;;;;11.90;58.44;93661.75;526205;28;777;-41
2023/10/24 01:10:58;;;;;;;3.03;2.28;;;;;;;11.90;58.63;93659.00;526189;28;913;-41
2023/10/24 01:11:13;;;;;;;4.90;2.43;;;;;;;11.84;58.72;93655.66;526165;28;955;-41
2023/10/24 01:11:29;;;;;;;5.45;2.60;;;;;;;11.91;58.58;93662.50;526176;28;873;-41
2023/10/24 01:11:44;;;;;;;5.43;2.67;;;;;;;11.90;58.38;93661.75;526136;28;967;-41
2023/10/24 01:12:00;;;;;;;5.20;2.65;;;;;;;11.88;58.40;93663.59;526254;28;830;-41
2023/10/24 01:12:15;;;;;;;5.40;2.60;;;;;;;11.82;58.65;93657.50;526111;28;928;-41
2023/10/24 01:12:31;;;;;;;5.13;2.80;;;;;;;11.79;58.70;93656.56;526234;28;901;-41
2023/10/24 01:12:47;;;;;;;5.38;2.75;;;;;;;11.73;58.92;93660.81;526194;28;859;-41
2023/10/24 01:13:03;;;;;;;5.13;2.60;;;;;;;11.68;59.05;93664.47;526269;28;845;-41
2023/10/24 01:13:18;;;;;;;4.10;2.65;;;;;;;11.67;59.07;93660.25;524068;28;892;-41
2023/10/24 01:13:34;;;;;;;4.72;2.80;;;;;;;11.66;59.09;93665.00;524108;28;928;-41
2023/10/24 01:13:50;;;;;;;4.37;2.73;;;;;;;11.67;59.11;93669.28;524138;28;981;-41
2023/10/24 01:14:05;;;;;;;5.40;2.67;;;;;;;11.68;58.90;93659.69;524606;28;992;-41
2023/10/24 01:14:20;;;;;;;6.93;2.67;;;;;;;11.69;59.07;93663.94;526182;28;849;-41
2023/10/24 01:14:36;;;;;;;6.10;2.75;;;;;;;11.72;58.88;93664.84;526128;28;928;-41
2023/10/24 01:14:51;;;;;;;6.20;2.87;;;;;;;11.65;58.75;93651.75;526154;28;825;-41
2023/10/24 01:15:07;;;;;;;6.22;2.85;;;;;;;11.72;58.58;93662.84;526544;28;841;-41
2023/10/24 01:15:23;;;;;;;4.07;2.70;;;;;;;11.68;58.88;93661.72;528302;28;1166;-41
2023/10/24 01:15:38;;;;;;;3.80;2.78;;;;;;;11.61;58.95;93665.91;528363;28;869;-41
2023/10/24 01:15:53;;;;;;;5.73;2.70;;;;;;;11.59;59.38;93665.72;528442;28;942;-41
2023/10/24 01:16:09;;;;;;;6.20;2.77;;;;;;;11.57;59.31;93670.31;528450;28;781;-41